createdAt,value
2023-04-30T00:02:27.036Z,9.10
2023-04-30T00:04:53.964Z,9.00
2023-04-30T00:07:20.666Z,9.00
2023-04-30T00:09:47.478Z,9.00
2023-04-30T00:12:14.694Z,9.00
2023-04-30T00:14:41.970Z,9.10
2023-04-30T00:17:09.183Z,9.10
2023-04-30T00:19:36.820Z,9.10
2023-04-30T00:22:03.943Z,9.10
2023-04-30T00:24:30.915Z,9.00
2023-04-30T00:26:57.834Z,9.00
2023-04-30T00:29:24.595Z,9.00
2023-04-30T00:31:51.387Z,8.90
2023-04-30T00:34:18.617Z,9.00
2023-04-30T00:36:45.636Z,9.00
2023-04-30T00:39:12.602Z,9.00
2023-04-30T00:41:40.099Z,9.00
2023-04-30T00:44:07.256Z,9.00
2023-04-30T00:46:34.095Z,9.00
2023-04-30T00:49:04.920Z,9.00
2023-04-30T00:51:33.296Z,9.00
2023-04-30T00:54:05.713Z,9.00
2023-04-30T00:56:33.586Z,9.00
2023-04-30T00:59:01.336Z,9.10
2023-04-30T01:01:31.964Z,9.10
2023-04-30T01:03:59.383Z,9.10
2023-04-30T01:06:27.175Z,9.00
2023-04-30T01:08:54.486Z,9.00
2023-04-30T01:11:59.338Z,8.90
2023-04-30T01:14:57.557Z,8.90
2023-04-30T01:17:53.237Z,8.80
2023-04-30T01:20:20.737Z,8.80
2023-04-30T01:23:12.604Z,8.70
2023-04-30T01:25:39.748Z,8.70
2023-04-30T01:28:13.361Z,8.70
2023-04-30T01:30:44.807Z,8.70
2023-04-30T01:33:13.104Z,8.60
2023-04-30T01:36:12.385Z,8.60
2023-04-30T01:39:13.658Z,8.50
2023-04-30T01:41:55.875Z,8.50
2023-04-30T01:44:47.910Z,8.40
2023-04-30T01:47:23.681Z,8.30
2023-04-30T01:50:24.958Z,8.20
2023-04-30T01:52:51.836Z,8.10
2023-04-30T01:55:24.576Z,8.10
2023-04-30T01:57:58.721Z,8.00
2023-04-30T02:00:27.255Z,7.90
2023-04-30T02:02:55.982Z,7.90
2023-04-30T02:05:23.259Z,7.80
2023-04-30T02:07:51.577Z,7.80
2023-04-30T02:10:21.038Z,7.70
2023-04-30T02:12:48.051Z,7.70
2023-04-30T02:15:15.323Z,7.70
2023-04-30T02:17:43.386Z,7.70
2023-04-30T02:20:12.158Z,7.70
2023-04-30T02:22:39.197Z,7.80
2023-04-30T02:25:06.741Z,7.90
2023-04-30T02:27:34.270Z,7.90
2023-04-30T02:30:01.689Z,8.00
2023-04-30T02:32:28.813Z,8.00
2023-04-30T02:34:55.823Z,8.00
2023-04-30T02:37:23.052Z,8.10
2023-04-30T02:39:50.448Z,8.10
2023-04-30T02:42:17.365Z,8.20
2023-04-30T02:44:44.384Z,8.20
2023-04-30T02:47:11.498Z,8.20
2023-04-30T02:49:38.876Z,8.20
2023-04-30T02:52:07.172Z,8.20
2023-04-30T02:54:34.146Z,8.20
2023-04-30T02:57:01.544Z,8.30
2023-04-30T02:59:28.638Z,8.20
2023-04-30T03:01:55.872Z,8.30
2023-04-30T03:04:22.847Z,8.30
2023-04-30T03:06:49.798Z,8.30
2023-04-30T03:09:16.990Z,8.40
2023-04-30T03:11:44.025Z,8.30
2023-04-30T03:14:10.928Z,8.40
2023-04-30T03:16:38.251Z,8.30
2023-04-30T03:19:05.917Z,8.40
2023-04-30T03:21:33.184Z,8.40
2023-04-30T03:24:00.128Z,8.50
2023-04-30T03:26:27.920Z,8.40
2023-04-30T03:28:55.918Z,8.50
2023-04-30T03:31:23.873Z,8.50
2023-04-30T03:33:51.191Z,8.50
2023-04-30T03:36:18.203Z,8.40
2023-04-30T03:38:45.461Z,8.40
2023-04-30T03:41:12.721Z,8.40
2023-04-30T03:43:39.705Z,8.30
2023-04-30T03:46:06.813Z,8.30
2023-04-30T03:48:33.862Z,8.30
2023-04-30T03:51:03.806Z,8.30
2023-04-30T03:53:30.705Z,8.40
2023-04-30T03:55:59.158Z,8.40
2023-04-30T03:58:27.069Z,8.40
2023-04-30T04:00:54.279Z,8.40
2023-04-30T04:03:22.393Z,8.40
2023-04-30T04:05:49.385Z,8.40
2023-04-30T04:08:16.756Z,8.30
2023-04-30T04:10:44.264Z,8.30
2023-04-30T04:13:11.565Z,8.30
2023-04-30T04:15:38.479Z,8.40
2023-04-30T04:18:07.136Z,8.40
2023-04-30T04:20:34.127Z,8.40
2023-04-30T04:23:01.099Z,8.40
2023-04-30T04:25:28.731Z,8.40
2023-04-30T04:27:55.751Z,8.40
2023-04-30T04:30:22.684Z,8.40
2023-04-30T04:32:54.002Z,8.30
2023-04-30T04:35:21.653Z,8.30
2023-04-30T04:37:49.197Z,8.30
2023-04-30T04:40:16.335Z,8.30
2023-04-30T04:42:43.575Z,8.30
2023-04-30T04:45:12.694Z,8.30
2023-04-30T04:47:39.657Z,8.40
2023-04-30T04:50:07.927Z,8.40
2023-04-30T04:52:35.273Z,8.30
2023-04-30T04:55:02.263Z,8.30
2023-04-30T04:57:29.148Z,8.40
2023-04-30T05:00:08.231Z,8.40
2023-04-30T05:02:35.209Z,8.40
2023-04-30T05:05:02.251Z,8.40
2023-04-30T05:07:29.948Z,8.50
2023-04-30T05:09:57.396Z,8.50
2023-04-30T05:12:24.837Z,8.50
2023-04-30T05:14:52.240Z,8.50
2023-04-30T05:17:19.561Z,8.60
2023-04-30T05:19:50.780Z,8.50
2023-04-30T05:22:17.806Z,8.60
2023-04-30T05:24:44.851Z,8.60
2023-04-30T05:27:11.886Z,8.70
2023-04-30T05:29:39.099Z,8.80
2023-04-30T05:32:06.302Z,8.80
2023-04-30T05:34:33.233Z,8.90
2023-04-30T05:37:02.284Z,9.00
2023-04-30T05:39:29.148Z,9.10
2023-04-30T05:41:56.367Z,9.20
2023-04-30T05:44:23.349Z,9.20
2023-04-30T05:46:50.413Z,9.20
2023-04-30T05:49:17.292Z,9.20
2023-04-30T05:51:44.169Z,9.30
2023-04-30T05:54:12.261Z,9.30
2023-04-30T05:56:39.350Z,9.20
2023-04-30T05:59:06.374Z,9.30
2023-04-30T06:01:34.024Z,9.30
2023-04-30T06:04:01.492Z,9.40
2023-04-30T06:06:28.532Z,9.50
2023-04-30T06:08:55.731Z,9.60
2023-04-30T06:11:23.128Z,9.70
2023-04-30T06:13:50.211Z,9.80
2023-04-30T06:16:17.361Z,9.80
2023-04-30T06:18:44.748Z,9.90
2023-04-30T06:21:11.818Z,9.90
2023-04-30T06:23:38.950Z,10.00
2023-04-30T06:26:06.248Z,10.10
2023-04-30T06:28:33.255Z,10.30
2023-04-30T06:31:00.331Z,10.50
2023-04-30T06:33:27.234Z,10.60
2023-04-30T06:35:55.634Z,10.90
2023-04-30T06:38:22.818Z,11.20
2023-04-30T06:40:49.990Z,11.20
2023-04-30T06:43:17.648Z,11.10
2023-04-30T06:45:44.650Z,10.90
2023-04-30T06:48:11.552Z,11.00
2023-04-30T06:50:45.253Z,10.80
2023-04-30T06:53:12.692Z,10.90
2023-04-30T06:55:39.814Z,10.70
2023-04-30T06:58:08.356Z,10.90
2023-04-30T07:00:36.082Z,11.30
2023-04-30T07:03:04.745Z,11.70
2023-04-30T07:05:33.330Z,12.20
2023-04-30T07:08:06.102Z,12.50
2023-04-30T07:10:33.219Z,12.40
2023-04-30T07:13:00.482Z,12.50
2023-04-30T07:15:27.351Z,12.80
2023-04-30T07:17:54.891Z,13.50
2023-04-30T07:20:25.323Z,14.60
2023-04-30T07:22:52.323Z,14.80
2023-04-30T07:25:19.532Z,14.70
2023-04-30T07:27:46.531Z,15.20
2023-04-30T07:30:16.084Z,15.40
2023-04-30T07:32:43.756Z,15.10
2023-04-30T07:35:10.920Z,15.00
2023-04-30T07:37:39.182Z,15.20
2023-04-30T07:40:15.180Z,14.90
2023-04-30T07:42:45.189Z,14.10
2023-04-30T07:45:13.308Z,13.80
2023-04-30T07:47:40.951Z,13.50
2023-04-30T07:50:10.802Z,13.60
2023-04-30T07:52:37.849Z,13.50
2023-04-30T07:55:05.012Z,13.10
2023-04-30T07:57:31.806Z,12.90
2023-04-30T07:59:58.876Z,13.10
2023-04-30T08:02:26.084Z,13.40
2023-04-30T08:05:06.343Z,13.70
2023-04-30T08:07:33.117Z,13.90
2023-04-30T08:10:12.540Z,14.30
2023-04-30T08:12:39.514Z,14.70
2023-04-30T08:15:07.722Z,14.90
2023-04-30T08:17:35.079Z,15.70
2023-04-30T08:20:04.487Z,16.00
2023-04-30T08:22:31.497Z,16.40
2023-04-30T08:25:01.974Z,16.70
2023-04-30T08:27:31.752Z,16.70
2023-04-30T08:29:58.937Z,16.90
2023-04-30T08:32:26.376Z,16.40
2023-04-30T08:34:54.732Z,15.80
2023-04-30T08:37:21.933Z,17.70
2023-04-30T08:39:48.667Z,17.80
2023-04-30T08:42:17.540Z,16.70
2023-04-30T08:44:46.782Z,17.20
2023-04-30T08:47:14.692Z,17.30
2023-04-30T08:49:41.868Z,17.10
2023-04-30T08:52:09.090Z,18.00
2023-04-30T08:54:39.533Z,18.30
2023-04-30T08:57:06.467Z,18.90
2023-04-30T08:59:33.553Z,18.60
2023-04-30T09:02:01.982Z,18.20
2023-04-30T09:04:29.272Z,17.70
2023-04-30T09:06:59.470Z,17.10
2023-04-30T09:09:30.992Z,17.10
2023-04-30T09:12:20.426Z,16.50
2023-04-30T09:15:01.488Z,16.40
2023-04-30T09:17:29.197Z,16.20
2023-04-30T09:20:08.059Z,16.20
2023-04-30T09:22:36.351Z,17.10
2023-04-30T09:25:03.520Z,17.50
2023-04-30T09:27:30.347Z,17.90
2023-04-30T09:30:00.199Z,17.90
2023-04-30T09:32:27.255Z,17.60
2023-04-30T09:34:53.978Z,17.00
2023-04-30T09:37:20.821Z,17.10
2023-04-30T09:39:49.658Z,17.20
2023-04-30T09:42:16.867Z,17.50
2023-04-30T09:44:43.919Z,16.70
2023-04-30T09:47:21.125Z,16.00
2023-04-30T09:49:51.873Z,15.80
2023-04-30T09:52:20.141Z,15.90
2023-04-30T09:54:47.803Z,15.60
2023-04-30T09:57:15.988Z,15.40
2023-04-30T09:59:47.260Z,15.10
2023-04-30T10:02:17.176Z,15.00
2023-04-30T10:04:45.448Z,14.80
2023-04-30T10:07:22.442Z,14.80
2023-04-30T10:10:20.306Z,15.10
2023-04-30T10:13:01.604Z,15.10
2023-04-30T10:15:39.299Z,15.40
2023-04-30T10:18:17.357Z,15.80
2023-04-30T10:20:57.290Z,16.00
2023-04-30T10:23:27.894Z,16.20
2023-04-30T10:25:57.483Z,15.90
2023-04-30T10:28:31.077Z,15.70
2023-04-30T10:31:00.707Z,15.90
2023-04-30T10:33:51.657Z,16.40
2023-04-30T10:36:30.947Z,16.50
2023-04-30T10:38:59.174Z,16.30
2023-04-30T10:41:28.095Z,16.00
2023-04-30T10:44:02.130Z,16.80
2023-04-30T10:46:35.810Z,17.00
2023-04-30T10:49:03.620Z,16.80
2023-04-30T10:51:51.775Z,16.60
2023-04-30T10:54:45.659Z,17.00
2023-04-30T10:57:14.597Z,16.70
2023-04-30T11:00:13.128Z,16.40
2023-04-30T11:02:57.832Z,16.40
2023-04-30T11:05:38.573Z,16.40
2023-04-30T11:08:06.379Z,16.30
2023-04-30T11:10:34.692Z,16.40
2023-04-30T11:13:22.814Z,16.40
2023-04-30T11:15:49.619Z,16.60
2023-04-30T11:18:21.810Z,16.60
2023-04-30T11:20:52.123Z,17.40
2023-04-30T11:23:38.467Z,17.40
2023-04-30T11:26:07.924Z,17.40
2023-04-30T11:28:37.805Z,17.50
2023-04-30T11:31:08.195Z,16.90
2023-04-30T11:33:44.017Z,16.70
2023-04-30T11:36:19.765Z,16.40
2023-04-30T11:38:49.702Z,16.30
2023-04-30T11:41:16.449Z,16.20
2023-04-30T11:43:49.836Z,16.20
2023-04-30T11:46:19.851Z,16.00
2023-04-30T11:48:47.284Z,16.20
2023-04-30T11:51:26.880Z,16.20
2023-04-30T11:53:54.053Z,15.80
2023-04-30T11:56:27.494Z,15.70
2023-04-30T11:58:57.625Z,15.50
2023-04-30T12:01:30.919Z,15.50
2023-04-30T12:03:58.022Z,15.60
2023-04-30T12:06:30.526Z,15.80
2023-04-30T12:09:04.004Z,15.90
2023-04-30T12:11:39.229Z,15.90
2023-04-30T12:14:11.223Z,16.20
2023-04-30T12:16:46.132Z,16.50
2023-04-30T12:19:13.174Z,16.60
2023-04-30T12:21:41.973Z,16.60
2023-04-30T12:24:10.937Z,16.50
2023-04-30T12:26:42.038Z,16.30
2023-04-30T12:29:15.820Z,16.30
2023-04-30T12:31:43.708Z,16.40
2023-04-30T12:34:13.381Z,15.80
2023-04-30T12:36:44.511Z,15.30
2023-04-30T12:39:14.025Z,15.50
2023-04-30T12:41:42.627Z,15.70
2023-04-30T12:44:18.421Z,15.80
2023-04-30T12:46:49.840Z,15.80
2023-04-30T12:49:27.609Z,15.90
2023-04-30T12:52:02.632Z,15.80
2023-04-30T12:54:31.392Z,16.00
2023-04-30T12:57:20.458Z,16.00
2023-04-30T12:59:53.398Z,16.10
2023-04-30T13:02:24.535Z,16.20
2023-04-30T13:04:52.691Z,16.30
2023-04-30T13:07:20.419Z,16.50
2023-04-30T13:09:47.807Z,16.60
2023-04-30T13:12:15.029Z,16.60
2023-04-30T13:14:42.060Z,16.40
2023-04-30T13:17:10.047Z,16.50
2023-04-30T13:19:36.879Z,16.60
2023-04-30T13:22:04.210Z,16.80
2023-04-30T13:24:31.347Z,16.90
2023-04-30T13:26:59.391Z,16.90
2023-04-30T13:29:27.579Z,16.70
2023-04-30T13:31:54.726Z,16.60
2023-04-30T13:34:21.783Z,16.90
2023-04-30T13:36:48.667Z,16.80
2023-04-30T13:39:15.703Z,16.90
2023-04-30T13:41:42.475Z,16.80
2023-04-30T13:44:09.578Z,17.10
2023-04-30T13:46:36.481Z,17.30
2023-04-30T13:49:03.613Z,17.50
2023-04-30T13:51:31.288Z,16.80
2023-04-30T13:53:58.118Z,16.30
2023-04-30T13:56:25.449Z,16.70
2023-04-30T13:58:52.423Z,17.10
2023-04-30T14:01:19.275Z,17.00
2023-04-30T14:03:47.719Z,16.80
2023-04-30T14:06:14.963Z,16.40
2023-04-30T14:08:42.034Z,16.10
2023-04-30T14:11:09.026Z,16.10
2023-04-30T14:13:35.843Z,15.40
2023-04-30T14:16:02.713Z,15.50
2023-04-30T14:18:29.464Z,15.70
2023-04-30T14:20:56.563Z,15.50
2023-04-30T14:23:23.804Z,15.80
2023-04-30T14:25:50.632Z,15.80
2023-04-30T14:28:17.605Z,15.90
2023-04-30T14:30:44.743Z,15.80
2023-04-30T14:33:12.983Z,16.00
2023-04-30T14:35:46.307Z,16.20
2023-04-30T14:38:17.162Z,16.40
2023-04-30T14:40:44.966Z,16.50
2023-04-30T14:43:12.098Z,16.50
2023-04-30T14:45:40.024Z,16.40
2023-04-30T14:48:07.170Z,16.50
2023-04-30T14:50:37.053Z,16.50
2023-04-30T14:53:05.208Z,16.00
2023-04-30T14:55:35.075Z,15.90
2023-04-30T15:00:29.668Z,15.80
2023-04-30T15:02:56.557Z,15.90
2023-04-30T15:05:23.984Z,16.00
2023-04-30T15:07:50.838Z,15.90
2023-04-30T15:10:17.869Z,16.00
2023-04-30T15:12:44.673Z,16.00
2023-04-30T15:15:11.792Z,15.90
2023-04-30T15:17:38.813Z,15.90
2023-04-30T15:20:07.008Z,15.90
2023-04-30T15:22:34.105Z,16.00
2023-04-30T15:25:00.986Z,16.10
2023-04-30T15:27:28.052Z,16.10
2023-04-30T15:29:55.164Z,16.10
2023-04-30T15:32:22.562Z,15.90
2023-04-30T15:34:49.364Z,15.80
2023-04-30T15:37:16.114Z,16.00
2023-04-30T15:39:43.084Z,16.10
2023-04-30T15:42:09.975Z,16.00
2023-04-30T15:44:36.734Z,15.70
2023-04-30T15:47:03.712Z,15.50
2023-04-30T15:49:30.729Z,15.40
2023-04-30T15:51:57.879Z,15.40
2023-04-30T15:54:24.606Z,15.30
2023-04-30T15:56:51.712Z,15.40
2023-04-30T15:59:19.695Z,15.30
2023-04-30T16:01:46.850Z,15.40
2023-04-30T16:04:13.662Z,15.40
2023-04-30T16:06:40.747Z,15.50
2023-04-30T16:09:08.796Z,15.60
2023-04-30T16:11:36.136Z,15.50
2023-04-30T16:14:03.442Z,15.40
2023-04-30T16:16:30.864Z,15.20
2023-04-30T16:18:57.784Z,15.20
2023-04-30T16:21:24.972Z,15.10
2023-04-30T16:23:52.656Z,15.00
2023-04-30T16:26:19.478Z,14.80
2023-04-30T16:28:47.358Z,14.70
2023-04-30T16:31:15.641Z,14.60
2023-04-30T16:33:42.992Z,14.70
2023-04-30T16:36:10.982Z,14.70
2023-04-30T16:38:37.758Z,14.60
2023-04-30T16:41:04.773Z,14.60
2023-04-30T16:43:31.858Z,14.60
2023-04-30T16:45:58.783Z,14.70
2023-04-30T16:48:25.750Z,14.50
2023-04-30T16:50:53.107Z,14.40
2023-04-30T16:53:20.655Z,14.40
2023-04-30T16:55:47.677Z,14.40
2023-04-30T16:58:14.455Z,14.30
2023-04-30T17:00:41.333Z,14.30
2023-04-30T17:03:08.519Z,14.10
2023-04-30T17:05:35.624Z,14.10
2023-04-30T17:08:02.579Z,14.10
2023-04-30T17:10:30.247Z,14.10
2023-04-30T17:12:59.601Z,14.00
2023-04-30T17:15:26.693Z,13.90
2023-04-30T17:17:54.125Z,13.90
2023-04-30T17:20:21.140Z,13.80
2023-04-30T17:22:48.115Z,13.80
2023-04-30T17:25:15.111Z,13.70
2023-04-30T17:27:41.812Z,13.60
2023-04-30T17:30:09.789Z,13.50
2023-04-30T17:32:36.955Z,13.50
2023-04-30T17:35:06.772Z,13.40
2023-04-30T17:37:35.355Z,13.40
2023-04-30T17:40:02.173Z,13.40
2023-04-30T17:42:34.007Z,13.30
2023-04-30T17:45:00.869Z,13.30
2023-04-30T17:47:27.844Z,13.20
2023-04-30T17:49:54.736Z,13.20
2023-04-30T17:52:21.768Z,13.20
2023-04-30T17:54:48.580Z,13.20
2023-04-30T17:57:15.608Z,13.10
2023-04-30T17:59:42.376Z,13.10
2023-04-30T18:02:09.685Z,13.00
2023-04-30T18:04:36.722Z,13.00
2023-04-30T18:07:03.616Z,13.00
2023-04-30T18:09:32.170Z,13.00
2023-04-30T18:12:00.090Z,12.90
2023-04-30T18:14:27.103Z,12.90
2023-04-30T18:16:54.650Z,12.90
2023-04-30T18:19:21.588Z,12.80
2023-04-30T18:21:48.510Z,12.70
2023-04-30T18:24:15.332Z,12.70
2023-04-30T18:26:44.821Z,12.70
2023-04-30T18:29:11.884Z,12.60
2023-04-30T18:31:42.306Z,12.60
2023-04-30T18:34:09.162Z,12.60
2023-04-30T18:36:36.933Z,12.50
2023-04-30T18:39:04.062Z,12.50
2023-04-30T18:41:38.303Z,12.40
2023-04-30T18:44:05.914Z,12.40
2023-04-30T18:46:33.064Z,12.30
2023-04-30T18:49:00.038Z,12.30
2023-04-30T18:51:27.495Z,12.30
2023-04-30T18:53:54.436Z,12.20
2023-04-30T18:56:22.158Z,12.20
2023-04-30T18:58:49.727Z,12.30
2023-04-30T19:01:24.548Z,12.20
2023-04-30T19:03:51.536Z,12.20
2023-04-30T19:06:19.136Z,12.20
2023-04-30T19:08:46.712Z,12.10
2023-04-30T19:11:14.007Z,12.00
2023-04-30T19:13:40.911Z,11.90
2023-04-30T19:16:07.772Z,11.80
2023-04-30T19:18:35.205Z,11.80
2023-04-30T19:21:02.391Z,11.70
2023-04-30T19:23:30.723Z,11.70
2023-04-30T19:25:59.148Z,11.70
2023-04-30T19:28:26.097Z,11.60
2023-04-30T19:30:54.408Z,11.50
2023-04-30T19:33:22.650Z,11.50
2023-04-30T19:35:54.613Z,11.50
2023-04-30T19:38:21.863Z,11.40
2023-04-30T19:40:50.271Z,11.50
2023-04-30T19:43:17.570Z,11.50
2023-04-30T19:46:04.766Z,11.50
2023-04-30T19:48:31.659Z,11.40
2023-04-30T19:50:59.167Z,11.30
2023-04-30T19:53:26.127Z,11.20
2023-04-30T19:55:53.201Z,11.00
2023-04-30T19:58:20.300Z,10.90
2023-04-30T20:00:47.263Z,10.80
2023-04-30T20:03:16.457Z,10.70
2023-04-30T20:05:45.023Z,10.60
2023-04-30T20:08:11.886Z,10.40
2023-04-30T20:10:42.787Z,10.40
2023-04-30T20:13:09.823Z,10.30
2023-04-30T20:15:43.041Z,10.20
2023-04-30T20:18:10.118Z,10.20
2023-04-30T20:20:37.005Z,10.20
2023-04-30T20:23:14.378Z,10.10
2023-04-30T20:25:45.942Z,10.00
2023-04-30T20:28:16.828Z,10.00
2023-04-30T20:30:44.279Z,10.00
2023-04-30T20:33:12.352Z,9.90
2023-04-30T20:35:47.215Z,9.90
2023-04-30T20:38:24.122Z,9.90
2023-04-30T20:40:51.368Z,9.90
2023-04-30T20:43:18.335Z,10.10
2023-04-30T20:45:45.343Z,10.20
2023-04-30T20:48:12.335Z,10.20
2023-04-30T20:50:48.565Z,10.20
2023-04-30T20:53:24.557Z,10.20
2023-04-30T20:55:51.539Z,10.20
2023-04-30T20:58:18.427Z,10.20
2023-04-30T21:00:45.805Z,10.20
2023-04-30T21:03:19.548Z,10.30
2023-04-30T21:05:46.497Z,10.30
2023-04-30T21:08:13.914Z,10.30
2023-04-30T21:11:14.530Z,10.50
2023-04-30T21:13:48.437Z,10.50
2023-04-30T21:16:16.963Z,10.50
2023-04-30T21:18:49.101Z,10.40
2023-04-30T21:21:16.969Z,10.30
2023-04-30T21:23:46.068Z,10.20
2023-04-30T21:26:15.087Z,10.10
2023-04-30T21:28:42.225Z,10.00
2023-04-30T21:31:09.453Z,9.90
2023-04-30T21:33:37.537Z,9.80
2023-04-30T21:36:05.437Z,9.70
2023-04-30T21:38:32.669Z,9.70
2023-04-30T21:41:00.280Z,9.60
2023-04-30T21:43:27.084Z,9.50
2023-04-30T21:45:53.880Z,9.50
2023-04-30T21:48:20.738Z,9.50
2023-04-30T21:50:50.293Z,9.50
2023-04-30T21:53:18.423Z,9.50
2023-04-30T21:55:45.707Z,9.50
2023-04-30T21:58:13.307Z,9.50
2023-04-30T22:00:40.140Z,9.50
2023-04-30T22:03:06.961Z,9.50
2023-04-30T22:05:33.747Z,9.50
2023-04-30T22:08:01.821Z,9.60
2023-04-30T22:10:28.621Z,9.60
2023-04-30T22:12:55.740Z,9.70
2023-04-30T22:15:22.738Z,9.60
2023-04-30T22:17:49.665Z,9.50
2023-04-30T22:20:17.499Z,9.50
2023-04-30T22:22:44.248Z,9.30
2023-04-30T22:25:11.367Z,9.20
2023-04-30T22:27:38.266Z,9.10
2023-04-30T22:30:06.110Z,9.00
2023-04-30T22:32:33.639Z,8.90
2023-04-30T22:35:00.429Z,8.90
2023-04-30T22:37:27.479Z,8.90
2023-04-30T22:39:54.453Z,8.80
2023-04-30T22:42:23.484Z,8.80
2023-04-30T22:44:50.877Z,8.80
2023-04-30T22:47:18.398Z,8.80
2023-04-30T22:49:45.456Z,8.80
2023-04-30T22:52:12.221Z,8.80
2023-04-30T22:54:39.308Z,8.80
2023-04-30T22:57:06.543Z,8.70
2023-04-30T22:59:33.277Z,8.70
2023-04-30T23:02:00.114Z,8.70
2023-04-30T23:04:28.337Z,8.70
2023-04-30T23:06:55.148Z,8.70
2023-04-30T23:09:22.311Z,8.60
2023-04-30T23:11:49.057Z,8.60
2023-04-30T23:14:15.993Z,8.60
2023-04-30T23:16:42.995Z,8.70
2023-04-30T23:19:10.363Z,8.70
2023-04-30T23:21:37.608Z,8.70
2023-04-30T23:24:04.406Z,8.70
2023-04-30T23:26:31.422Z,8.70
2023-04-30T23:28:58.754Z,8.70
2023-04-30T23:31:25.669Z,8.70
2023-04-30T23:33:52.541Z,8.80
2023-04-30T23:36:19.555Z,8.80
2023-04-30T23:38:49.606Z,8.80
2023-04-30T23:41:16.335Z,8.80
2023-04-30T23:43:43.181Z,8.80
2023-04-30T23:46:10.002Z,8.80
2023-04-30T23:48:37.395Z,8.70
2023-04-30T23:51:05.336Z,8.80
2023-04-30T23:53:32.272Z,8.80
2023-04-30T23:55:59.297Z,8.80
2023-04-30T23:58:26.683Z,8.70
